This is the latest recevied weather packets stored in our database for station/object URMT. If no packets are shown the sender has not sent any weather packets the latest 10 day(s).
| Time | Temp. | Humidity | Pressure | Rain* | Wind** | Luminosity | Snow |
|---|---|---|---|---|---|---|---|
| 1778155243 | 16.67° C | 59% | 1019 hPa | - | - | - | - |
| 1778153443 | 16.67° C | 59% | 1019 hPa | - | - | - | - |
| 1778151644 | 16.67° C | 59% | 1019 hPa | - | - | - | - |
| 1778149844 | 15.56° C | 63% | 1020 hPa | - | - | - | - |
| 1778148043 | 15° C | 72% | 1020 hPa | - | - | - | - |
| 1778146246 | 15.56° C | 63% | 1020 hPa | - | - | - | - |
| 1778144444 | 13.89° C | 76% | 1020 hPa | - | - | - | - |
| 1778142644 | 13.89° C | 76% | 1020 hPa | - | - | - | - |
| 1778140845 | 13.89° C | 71% | 1020 hPa | - | - | - | - |
| 1778139043 | 13.89° C | 71% | 1020 hPa | - | - | - | - |
| 1778137245 | 12.78° C | 76% | 1020 hPa | - | - | - | - |
| 1778133643 | 10.56° C | 87% | 1020 hPa | - | - | - | - |
| 1778131844 | 10.56° C | 87% | 1020 hPa | - | - | - | - |
| 1778130044 | 10.56° C | 87% | 1019 hPa | - | - | - | - |
| 1778128245 | 10.56° C | 87% | 1019 hPa | - | - | - | - |
| 1778126444 | 10.56° C | 87% | 1018 hPa | - | - | - | - |
| 1778124645 | 10.56° C | 87% | 1018 hPa | - | - | - | - |
| 1778122844 | 10° C | 93% | 1018 hPa | - | - | - | - |
| 1778121045 | 10.56° C | 87% | 1017 hPa | - | - | - | - |
| 1778119244 | 10.56° C | 76% | 1017 hPa | - | - | - | - |
| 1778117444 | 11.67° C | 71% | 1017 hPa | - | - | - | - |
| 1778115644 | 11.67° C | 66% | 1017 hPa | - | - | - | - |
| 1778113845 | 11.67° C | 62% | 1017 hPa | - | - | - | - |
| 1778112045 | 11.67° C | 62% | 1017 hPa | - | - | - | - |
| 1778110245 | 11.67° C | 62% | 1017 hPa | - | - | - | - |
* Rain since midnight (hover to see other rain measurements)
** Current wind speed in m/s (hover to see current wind gust speed)